createdAt,value
2019-05-22T00:02:22.665Z,11.70
2019-05-22T00:05:06.018Z,11.70
2019-05-22T00:07:38.525Z,11.70
2019-05-22T00:10:17.509Z,11.60
2019-05-22T00:12:50.166Z,11.60
2019-05-22T00:15:23.310Z,11.60
2019-05-22T00:17:55.181Z,11.70
2019-05-22T00:20:30.911Z,11.60
2019-05-22T00:23:02.487Z,11.60
2019-05-22T00:25:33.376Z,11.60
2019-05-22T00:28:05.046Z,11.60
2019-05-22T00:30:41.605Z,11.60
2019-05-22T00:33:14.123Z,11.60
2019-05-22T00:35:52.603Z,11.60
2019-05-22T00:38:25.384Z,11.60
2019-05-22T00:40:55.314Z,11.50
2019-05-22T00:43:34.479Z,11.50
2019-05-22T00:46:11.235Z,11.50
2019-05-22T00:48:41.503Z,11.50
2019-05-22T00:51:14.476Z,11.50
2019-05-22T00:54:00.507Z,11.50
2019-05-22T00:56:34.804Z,11.50
2019-05-22T00:59:08.021Z,11.50
2019-05-22T01:01:50.109Z,11.50
2019-05-22T01:04:22.972Z,11.60
2019-05-22T01:06:54.925Z,11.60
2019-05-22T01:09:41.471Z,11.60
2019-05-22T01:12:16.806Z,11.50
2019-05-22T01:14:46.781Z,11.50
2019-05-22T01:17:24.629Z,11.60
2019-05-22T01:20:01.630Z,11.60
2019-05-22T01:22:31.654Z,11.50
2019-05-22T01:25:06.169Z,11.50
2019-05-22T01:27:36.630Z,11.40
2019-05-22T01:30:09.751Z,11.30
2019-05-22T01:32:53.046Z,11.30
2019-05-22T01:35:23.382Z,11.30
2019-05-22T01:37:54.965Z,11.30
2019-05-22T01:40:39.357Z,11.30
2019-05-22T01:43:11.905Z,11.30
2019-05-22T01:45:43.473Z,11.30
2019-05-22T01:48:17.945Z,11.30
2019-05-22T01:50:52.028Z,11.30
2019-05-22T01:53:24.732Z,11.30
2019-05-22T01:55:59.068Z,11.40
2019-05-22T01:58:30.714Z,11.40
2019-05-22T02:01:23.220Z,11.40
2019-05-22T02:03:56.696Z,11.50
2019-05-22T02:06:27.135Z,11.40
2019-05-22T02:09:03.011Z,11.40
2019-05-22T02:11:32.937Z,11.40
2019-05-22T02:14:07.805Z,11.30
2019-05-22T02:16:55.623Z,11.30
2019-05-22T02:19:14.303Z,11.30
2019-05-22T02:21:44.702Z,11.30
2019-05-22T02:24:16.574Z,11.30
2019-05-22T02:26:48.581Z,11.30
2019-05-22T02:29:23.885Z,11.30
2019-05-22T02:31:55.481Z,11.30
2019-05-22T02:34:27.514Z,11.30
2019-05-22T02:37:05.960Z,11.30
2019-05-22T02:39:37.731Z,11.30
2019-05-22T02:42:13.384Z,11.30
2019-05-22T02:44:46.399Z,11.20
2019-05-22T02:47:21.804Z,11.30
2019-05-22T02:49:57.171Z,11.30
2019-05-22T02:52:27.202Z,11.30
2019-05-22T02:54:58.554Z,11.30
2019-05-22T02:57:28.621Z,11.30
2019-05-22T03:00:00.573Z,11.40
2019-05-22T03:02:30.884Z,11.40
2019-05-22T03:05:04.008Z,11.40
2019-05-22T03:07:39.465Z,11.40
2019-05-22T03:10:12.588Z,11.40
2019-05-22T03:12:44.543Z,11.40
2019-05-22T03:15:17.825Z,11.40
2019-05-22T03:17:47.778Z,11.40
2019-05-22T03:20:19.844Z,11.40
2019-05-22T03:23:07.754Z,11.40
2019-05-22T03:25:45.856Z,11.40
2019-05-22T03:28:14.257Z,11.40
2019-05-22T03:30:46.817Z,11.40
2019-05-22T03:33:16.951Z,11.40
2019-05-22T03:35:50.042Z,11.40
2019-05-22T03:38:20.237Z,11.40
2019-05-22T03:40:55.680Z,11.40
2019-05-22T03:43:30.661Z,11.40
2019-05-22T03:46:04.014Z,11.40
2019-05-22T03:48:35.489Z,11.50
2019-05-22T03:51:14.149Z,11.50
2019-05-22T03:53:47.692Z,11.50
2019-05-22T03:56:19.622Z,11.40
2019-05-22T03:58:51.047Z,11.40
2019-05-22T04:01:22.255Z,11.40
2019-05-22T04:03:52.288Z,11.40
2019-05-22T04:06:24.174Z,11.40
2019-05-22T04:08:54.105Z,11.40
2019-05-22T04:11:30.502Z,11.50
2019-05-22T04:14:03.833Z,11.50
2019-05-22T04:16:34.069Z,11.50
2019-05-22T04:19:05.648Z,11.50
2019-05-22T04:21:40.414Z,11.40
2019-05-22T04:24:13.822Z,11.40
2019-05-22T04:26:45.092Z,11.50
2019-05-22T04:29:17.529Z,11.40
2019-05-22T04:32:09.750Z,11.40
2019-05-22T04:34:41.114Z,11.40
2019-05-22T04:37:16.090Z,11.40
2019-05-22T04:39:49.221Z,11.40
2019-05-22T04:42:19.224Z,11.40
2019-05-22T04:45:10.081Z,11.40
2019-05-22T04:47:40.185Z,11.40
2019-05-22T04:50:11.341Z,11.50
2019-05-22T04:52:41.650Z,11.40
2019-05-22T04:55:14.692Z,11.50
2019-05-22T04:57:50.908Z,11.40
2019-05-22T05:00:22.891Z,11.50
2019-05-22T05:02:52.942Z,11.50
2019-05-22T05:05:25.225Z,11.50
2019-05-22T05:07:56.127Z,11.60
2019-05-22T05:10:30.733Z,11.60
2019-05-22T05:13:01.153Z,11.60
2019-05-22T05:15:30.219Z,11.70
2019-05-22T05:18:04.997Z,11.70
2019-05-22T05:20:37.919Z,11.70
2019-05-22T05:23:09.029Z,11.80
2019-05-22T05:25:39.962Z,11.90
2019-05-22T05:28:13.342Z,12.00
2019-05-22T05:30:44.390Z,12.00
2019-05-22T05:33:18.846Z,12.10
2019-05-22T05:35:49.678Z,12.10
2019-05-22T05:38:36.998Z,12.20
2019-05-22T05:41:10.983Z,12.30
2019-05-22T05:43:50.435Z,12.30
2019-05-22T05:46:20.394Z,12.30
2019-05-22T05:48:52.282Z,12.20
2019-05-22T05:51:24.011Z,12.30
2019-05-22T05:53:57.177Z,12.30
2019-05-22T05:56:35.489Z,12.10
2019-05-22T05:59:11.762Z,12.10
2019-05-22T06:01:47.730Z,12.10
2019-05-22T06:04:34.538Z,12.00
2019-05-22T06:07:02.904Z,11.90
2019-05-22T06:09:39.418Z,12.00
2019-05-22T06:12:14.118Z,12.00
2019-05-22T06:14:45.766Z,12.10
2019-05-22T06:17:33.671Z,12.20
2019-05-22T06:20:12.722Z,12.40
2019-05-22T06:22:45.212Z,12.40
2019-05-22T06:25:17.147Z,12.40
2019-05-22T06:27:50.499Z,12.40
2019-05-22T06:30:23.618Z,12.30
2019-05-22T06:33:12.770Z,12.30
2019-05-22T06:35:44.542Z,12.40
2019-05-22T06:38:52.694Z,12.50
2019-05-22T06:41:27.059Z,12.60
2019-05-22T06:44:19.891Z,13.10
2019-05-22T06:46:49.650Z,13.30
2019-05-22T06:49:36.565Z,13.50
2019-05-22T06:52:09.297Z,13.70
2019-05-22T06:54:43.637Z,13.90
2019-05-22T06:57:18.121Z,14.10
2019-05-22T06:59:47.487Z,14.30
2019-05-22T07:02:19.077Z,14.20
2019-05-22T07:04:55.250Z,14.30
2019-05-22T07:07:27.080Z,14.60
2019-05-22T07:09:57.078Z,14.90
2019-05-22T07:12:30.409Z,15.10
2019-05-22T07:15:12.202Z,15.20
2019-05-22T07:17:45.692Z,15.40
2019-05-22T07:20:18.791Z,15.40
2019-05-22T07:22:47.276Z,15.50
2019-05-22T07:25:41.167Z,15.30
2019-05-22T07:28:15.487Z,15.10
2019-05-22T07:30:47.271Z,14.90
2019-05-22T07:33:19.126Z,14.80
2019-05-22T07:36:08.423Z,14.60
2019-05-22T07:38:25.118Z,14.60
2019-05-22T07:40:56.152Z,14.40
2019-05-22T07:43:28.818Z,14.50
2019-05-22T07:46:00.640Z,14.40
2019-05-22T07:48:32.222Z,14.30
2019-05-22T07:51:09.495Z,14.20
2019-05-22T07:53:43.937Z,14.30
2019-05-22T07:56:15.814Z,14.80
2019-05-22T07:58:44.333Z,15.10
2019-05-22T08:01:15.914Z,15.20
2019-05-22T08:03:48.782Z,15.40
2019-05-22T08:06:18.889Z,15.60
2019-05-22T08:08:51.364Z,15.30
2019-05-22T08:11:21.705Z,15.40
2019-05-22T08:13:51.633Z,15.60
2019-05-22T08:16:20.969Z,15.80
2019-05-22T08:18:52.424Z,15.90
2019-05-22T08:21:25.357Z,16.20
2019-05-22T08:23:58.331Z,16.30
2019-05-22T08:26:51.593Z,15.90
2019-05-22T08:29:09.125Z,15.80
2019-05-22T08:31:41.325Z,15.40
2019-05-22T08:34:14.783Z,15.20
2019-05-22T08:36:46.281Z,15.10
2019-05-22T08:39:21.309Z,14.90
2019-05-22T08:41:55.095Z,14.60
2019-05-22T08:44:25.365Z,14.40
2019-05-22T08:46:55.398Z,14.40
2019-05-22T08:49:25.497Z,14.40
2019-05-22T08:51:57.121Z,14.40
2019-05-22T08:54:33.839Z,14.20
2019-05-22T08:57:06.592Z,14.10
2019-05-22T08:59:36.182Z,13.90
2019-05-22T09:02:09.066Z,13.90
2019-05-22T09:04:42.821Z,13.90
2019-05-22T09:07:14.463Z,14.00
2019-05-22T09:09:42.933Z,14.20
2019-05-22T09:12:13.031Z,14.30
2019-05-22T09:14:44.598Z,14.30
2019-05-22T09:17:17.775Z,14.20
2019-05-22T09:19:49.387Z,14.30
2019-05-22T09:22:22.369Z,14.40
2019-05-22T09:24:52.492Z,14.50
2019-05-22T09:27:22.593Z,14.50
2019-05-22T09:29:52.857Z,14.40
2019-05-22T09:32:23.601Z,14.30
2019-05-22T09:34:54.810Z,14.30
2019-05-22T09:37:27.762Z,14.40
2019-05-22T09:39:57.588Z,14.40
2019-05-22T09:42:28.900Z,14.30
2019-05-22T09:44:57.534Z,14.00
2019-05-22T09:47:27.570Z,14.20
2019-05-22T09:49:56.113Z,14.20
2019-05-22T09:52:33.341Z,14.40
2019-05-22T09:55:07.615Z,14.50
2019-05-22T09:57:39.161Z,14.60
2019-05-22T10:00:11.425Z,14.80
2019-05-22T10:02:43.237Z,14.90
2019-05-22T10:05:15.342Z,14.70
2019-05-22T10:07:59.860Z,14.60
2019-05-22T10:10:19.189Z,14.50
2019-05-22T10:12:47.727Z,14.40
2019-05-22T10:15:20.445Z,14.50
2019-05-22T10:17:54.786Z,14.30
2019-05-22T10:20:25.110Z,14.40
2019-05-22T10:23:13.997Z,14.80
2019-05-22T10:25:32.501Z,15.20
2019-05-22T10:28:11.883Z,15.50
2019-05-22T10:30:41.805Z,15.80
2019-05-22T10:33:10.201Z,16.50
2019-05-22T10:35:40.233Z,16.60
2019-05-22T10:38:10.347Z,17.00
2019-05-22T10:40:39.398Z,17.30
2019-05-22T10:43:08.043Z,17.80
2019-05-22T10:45:38.205Z,18.10
2019-05-22T10:48:09.585Z,18.20
2019-05-22T10:50:41.068Z,18.40
2019-05-22T10:53:11.169Z,18.50
2019-05-22T10:55:42.666Z,18.80
2019-05-22T10:58:12.591Z,18.60
2019-05-22T11:00:42.595Z,18.30
2019-05-22T11:03:13.201Z,18.20
2019-05-22T11:05:43.914Z,17.90
2019-05-22T11:08:15.488Z,18.10
2019-05-22T11:10:45.263Z,18.40
2019-05-22T11:13:15.202Z,18.60
2019-05-22T11:15:46.774Z,18.60
2019-05-22T11:18:15.180Z,18.80
2019-05-22T11:20:43.649Z,19.10
2019-05-22T11:23:15.536Z,19.10
2019-05-22T11:25:45.476Z,19.40
2019-05-22T11:28:19.848Z,19.20
2019-05-22T11:30:51.679Z,19.00
2019-05-22T11:33:23.509Z,19.00
2019-05-22T11:35:53.620Z,18.90
2019-05-22T11:38:22.500Z,18.90
2019-05-22T11:40:50.902Z,18.70
2019-05-22T11:43:22.438Z,19.00
2019-05-22T11:45:51.105Z,19.00
2019-05-22T11:48:25.702Z,19.10
2019-05-22T11:50:54.946Z,19.10
2019-05-22T11:53:25.989Z,18.90
2019-05-22T11:55:54.462Z,18.50
2019-05-22T11:58:22.852Z,18.40
2019-05-22T12:00:55.873Z,18.80
2019-05-22T12:03:33.119Z,19.10
2019-05-22T12:06:03.124Z,19.80
2019-05-22T12:08:33.046Z,20.90
2019-05-22T12:11:03.465Z,21.50
2019-05-22T12:13:32.505Z,21.40
2019-05-22T12:16:08.264Z,20.30
2019-05-22T12:18:42.802Z,20.00
2019-05-22T12:21:12.897Z,20.00
2019-05-22T12:23:45.585Z,19.90
2019-05-22T12:26:17.217Z,19.10
2019-05-22T12:28:50.208Z,19.30
2019-05-22T12:31:20.475Z,19.10
2019-05-22T12:33:56.255Z,18.90
2019-05-22T12:36:36.338Z,19.40
2019-05-22T12:39:06.706Z,19.60
2019-05-22T12:41:40.922Z,19.40
2019-05-22T12:44:11.827Z,19.40
2019-05-22T12:46:41.754Z,19.90
2019-05-22T12:49:13.616Z,20.10
2019-05-22T12:51:45.100Z,20.30
2019-05-22T12:54:17.754Z,20.70
2019-05-22T12:56:49.230Z,20.50
2019-05-22T12:59:22.234Z,20.10
2019-05-22T13:01:52.286Z,19.70
2019-05-22T13:04:23.674Z,19.60
2019-05-22T13:06:52.213Z,20.10
2019-05-22T13:09:22.377Z,20.30
2019-05-22T13:11:52.834Z,20.30
2019-05-22T13:14:23.934Z,20.60
2019-05-22T13:16:54.052Z,21.00
2019-05-22T13:19:25.669Z,21.60
2019-05-22T13:21:58.794Z,21.10
2019-05-22T13:24:32.161Z,20.50
2019-05-22T13:27:11.318Z,20.30
2019-05-22T13:29:41.779Z,20.20
2019-05-22T13:32:14.895Z,20.20
2019-05-22T13:34:51.143Z,20.40
2019-05-22T13:37:19.548Z,21.00
2019-05-22T13:39:52.283Z,20.80
2019-05-22T13:42:22.693Z,20.80
2019-05-22T13:45:01.376Z,20.90
2019-05-22T13:47:33.381Z,21.00
2019-05-22T13:50:07.011Z,21.30
2019-05-22T13:52:38.792Z,21.70
2019-05-22T13:55:11.222Z,22.30
2019-05-22T13:57:42.167Z,22.80
2019-05-22T14:00:15.284Z,23.00
2019-05-22T14:02:43.928Z,23.10
2019-05-22T14:05:16.876Z,23.60
2019-05-22T14:07:46.869Z,23.40
2019-05-22T14:10:24.697Z,23.50
2019-05-22T14:12:55.392Z,23.60
2019-05-22T14:15:25.832Z,24.10
2019-05-22T14:17:57.738Z,24.20
2019-05-22T14:20:26.223Z,24.40
2019-05-22T14:22:54.703Z,24.60
2019-05-22T14:25:30.806Z,24.20
2019-05-22T14:27:59.409Z,24.70
2019-05-22T14:30:33.688Z,25.10
2019-05-22T14:33:09.770Z,25.20
2019-05-22T14:35:48.395Z,25.90
2019-05-22T14:38:16.886Z,26.60
2019-05-22T14:40:45.470Z,27.20
2019-05-22T14:43:15.440Z,27.40
2019-05-22T14:45:46.951Z,27.20
2019-05-22T14:48:15.666Z,26.10
2019-05-22T14:50:50.606Z,24.90
2019-05-22T14:53:19.018Z,24.60
2019-05-22T14:55:48.946Z,24.80
2019-05-22T14:58:19.125Z,24.70
2019-05-22T15:00:49.736Z,25.10
2019-05-22T15:03:21.298Z,25.40
2019-05-22T15:05:57.188Z,24.90
2019-05-22T15:08:25.667Z,24.80
2019-05-22T15:11:00.065Z,24.90
2019-05-22T15:13:28.492Z,24.30
2019-05-22T15:15:58.026Z,23.00
2019-05-22T15:18:32.739Z,23.30
2019-05-22T15:21:05.385Z,23.40
2019-05-22T15:23:37.353Z,23.50
2019-05-22T15:26:07.338Z,23.90
2019-05-22T15:28:37.661Z,24.70
2019-05-22T15:31:09.545Z,25.50
2019-05-22T15:33:40.713Z,25.10
2019-05-22T15:36:12.123Z,24.20
2019-05-22T15:38:44.009Z,23.90
2019-05-22T15:41:15.614Z,23.90
2019-05-22T15:43:52.874Z,24.10
2019-05-22T15:46:21.828Z,23.90
2019-05-22T15:48:58.567Z,24.50
2019-05-22T15:51:33.454Z,25.20
2019-05-22T15:54:09.543Z,25.90
2019-05-22T15:56:44.253Z,26.80
2019-05-22T15:59:15.732Z,25.80
2019-05-22T16:01:52.479Z,25.40
2019-05-22T16:04:23.587Z,24.80
2019-05-22T16:06:54.746Z,23.90
2019-05-22T16:09:24.919Z,22.50
2019-05-22T16:11:56.383Z,22.30
2019-05-22T16:14:29.489Z,23.20
2019-05-22T16:17:01.278Z,24.10
2019-05-22T16:19:31.583Z,24.40
2019-05-22T16:22:06.452Z,24.10
2019-05-22T16:24:37.917Z,23.80
2019-05-22T16:27:10.830Z,24.10
2019-05-22T16:29:43.699Z,24.40
2019-05-22T16:32:15.589Z,24.20
2019-05-22T16:34:52.494Z,23.40
2019-05-22T16:37:22.691Z,23.10
2019-05-22T16:40:04.091Z,22.80
2019-05-22T16:42:34.590Z,22.70
2019-05-22T16:45:04.603Z,22.70
2019-05-22T16:47:37.258Z,22.90
2019-05-22T16:50:08.625Z,22.40
2019-05-22T16:52:41.712Z,21.80
2019-05-22T16:55:13.411Z,20.90
2019-05-22T16:57:43.410Z,20.30
2019-05-22T17:00:17.895Z,19.50
2019-05-22T17:02:49.626Z,19.00
2019-05-22T17:05:22.702Z,18.50
2019-05-22T17:07:55.818Z,18.10
2019-05-22T17:10:32.487Z,18.00
2019-05-22T17:13:04.121Z,17.80
2019-05-22T17:15:34.363Z,17.70
2019-05-22T17:18:05.527Z,17.50
2019-05-22T17:20:34.082Z,17.40
2019-05-22T17:23:07.374Z,17.30
2019-05-22T17:25:38.949Z,17.30
2019-05-22T17:28:12.159Z,17.20
2019-05-22T17:30:44.529Z,17.10
2019-05-22T17:33:16.261Z,17.10
2019-05-22T17:35:47.835Z,17.10
2019-05-22T17:38:19.401Z,17.10
2019-05-22T17:40:49.614Z,17.00
2019-05-22T17:43:20.181Z,17.00
2019-05-22T17:45:51.894Z,16.90
2019-05-22T17:48:25.225Z,16.90
2019-05-22T17:50:56.585Z,16.80
2019-05-22T17:53:31.133Z,16.70
2019-05-22T17:56:01.213Z,16.70
2019-05-22T17:58:33.597Z,16.60
2019-05-22T18:01:09.214Z,16.50
2019-05-22T18:03:43.633Z,16.40
2019-05-22T18:06:17.585Z,16.30
2019-05-22T18:08:49.977Z,16.30
2019-05-22T18:11:18.361Z,16.20
2019-05-22T18:14:01.473Z,16.00
2019-05-22T18:16:31.467Z,15.90
2019-05-22T18:19:08.961Z,15.70
2019-05-22T18:21:41.663Z,15.60
2019-05-22T18:24:11.723Z,15.50
2019-05-22T18:26:42.462Z,15.50
2019-05-22T18:29:20.846Z,15.40
2019-05-22T18:31:53.722Z,15.20
2019-05-22T18:34:25.239Z,15.10
2019-05-22T18:36:55.181Z,14.90
2019-05-22T18:39:29.423Z,14.70
2019-05-22T18:41:57.811Z,14.50
2019-05-22T18:44:26.197Z,14.30
2019-05-22T18:46:57.577Z,14.20
2019-05-22T18:49:29.027Z,14.00
2019-05-22T18:52:03.498Z,13.90
2019-05-22T18:54:35.056Z,13.70
2019-05-22T18:57:04.998Z,13.40
2019-05-22T18:59:33.385Z,13.20
2019-05-22T19:02:07.725Z,12.90
2019-05-22T19:04:36.499Z,12.60
2019-05-22T19:07:08.739Z,12.30
2019-05-22T19:09:39.966Z,12.00
2019-05-22T19:12:09.213Z,11.80
2019-05-22T19:14:37.621Z,11.50
2019-05-22T19:17:07.892Z,11.30
2019-05-22T19:19:38.067Z,11.10
2019-05-22T19:22:09.457Z,11.00
2019-05-22T19:24:37.861Z,10.90
2019-05-22T19:27:06.330Z,10.80
2019-05-22T19:29:43.714Z,10.60
2019-05-22T19:32:13.766Z,10.50
2019-05-22T19:34:44.925Z,10.40
2019-05-22T19:37:14.991Z,10.30
2019-05-22T19:39:45.132Z,10.30
2019-05-22T19:42:16.194Z,10.10
2019-05-22T19:44:52.317Z,10.00
2019-05-22T19:47:22.657Z,9.90
2019-05-22T19:49:51.110Z,9.80
2019-05-22T19:52:22.813Z,9.70
2019-05-22T19:54:51.917Z,9.60
2019-05-22T19:57:20.310Z,9.40
2019-05-22T19:59:53.282Z,9.30
2019-05-22T20:02:23.210Z,9.20
2019-05-22T20:04:55.009Z,9.10
2019-05-22T20:07:25.043Z,9.10
2019-05-22T20:09:53.439Z,9.00
2019-05-22T20:12:41.167Z,8.90
2019-05-22T20:15:11.841Z,8.80
2019-05-22T20:17:40.527Z,8.80
2019-05-22T20:20:11.148Z,8.70
2019-05-22T20:22:46.973Z,8.60
2019-05-22T20:25:17.275Z,8.50
2019-05-22T20:27:50.187Z,8.40
2019-05-22T20:30:39.922Z,8.40
2019-05-22T20:33:10.110Z,8.40
2019-05-22T20:35:40.206Z,8.40
2019-05-22T20:38:10.250Z,8.40
2019-05-22T20:40:48.707Z,8.30
2019-05-22T20:43:19.004Z,8.30
2019-05-22T20:45:52.023Z,8.30
2019-05-22T20:48:26.778Z,8.20
2019-05-22T20:51:01.117Z,8.20
2019-05-22T20:53:32.730Z,8.10
2019-05-22T20:56:04.301Z,8.20
2019-05-22T20:58:36.045Z,8.20
2019-05-22T21:01:07.515Z,8.10
2019-05-22T21:03:40.879Z,8.10
2019-05-22T21:06:13.982Z,8.00
2019-05-22T21:08:45.756Z,8.00
2019-05-22T21:11:17.445Z,7.90
2019-05-22T21:13:47.535Z,7.80
2019-05-22T21:19:00.421Z,7.60
2019-05-22T21:21:30.534Z,7.50
2019-05-22T21:24:11.693Z,7.50
2019-05-22T21:26:42.486Z,7.50
2019-05-22T21:29:13.011Z,7.50
2019-05-22T21:31:47.552Z,7.50
2019-05-22T21:34:16.382Z,7.50
2019-05-22T21:36:46.430Z,7.40
2019-05-22T21:39:19.265Z,7.30
2019-05-22T21:41:49.706Z,7.20
2019-05-22T21:44:18.206Z,7.10
2019-05-22T21:46:49.788Z,7.10
2019-05-22T21:49:21.271Z,7.10
2019-05-22T21:51:49.940Z,7.00
2019-05-22T21:54:18.406Z,7.00
2019-05-22T21:56:51.057Z,7.20
2019-05-22T21:59:21.453Z,7.20
2019-05-22T22:01:58.566Z,7.20
2019-05-22T22:04:30.197Z,7.10
2019-05-22T22:07:04.989Z,7.10
2019-05-22T22:09:38.122Z,7.00
2019-05-22T22:12:13.195Z,7.00
2019-05-22T22:14:45.914Z,7.00
2019-05-22T22:17:15.938Z,6.90
2019-05-22T22:19:46.834Z,6.90
2019-05-22T22:22:21.208Z,6.90
2019-05-22T22:24:55.547Z,6.80
2019-05-22T22:27:27.315Z,6.70
2019-05-22T22:29:57.236Z,6.60
2019-05-22T22:32:30.096Z,6.60
2019-05-22T22:35:01.689Z,6.50
2019-05-22T22:37:31.956Z,6.60
2019-05-22T22:40:03.016Z,6.60
2019-05-22T22:42:37.496Z,6.60
2019-05-22T22:45:10.609Z,6.60
2019-05-22T22:47:43.353Z,6.50
2019-05-22T22:50:13.347Z,6.40
2019-05-22T22:52:45.312Z,6.40
2019-05-22T22:55:21.088Z,6.30
2019-05-22T22:57:51.538Z,6.30
2019-05-22T23:00:23.078Z,6.30
2019-05-22T23:02:53.843Z,6.30
2019-05-22T23:05:25.637Z,6.30
2019-05-22T23:07:56.705Z,6.30
2019-05-22T23:10:28.168Z,6.30
2019-05-22T23:12:58.414Z,6.30
2019-05-22T23:15:28.337Z,6.20
2019-05-22T23:17:58.313Z,6.20
2019-05-22T23:20:27.317Z,6.20
2019-05-22T23:22:57.463Z,6.20
2019-05-22T23:25:34.750Z,6.10
2019-05-22T23:28:04.676Z,6.10
2019-05-22T23:30:34.717Z,6.10
2019-05-22T23:33:11.629Z,6.10
2019-05-22T23:35:41.665Z,6.10
2019-05-22T23:38:11.712Z,6.10
2019-05-22T23:40:43.185Z,6.10
2019-05-22T23:43:15.054Z,6.10
2019-05-22T23:45:43.706Z,6.20
2019-05-22T23:48:13.856Z,6.10
2019-05-22T23:50:47.365Z,6.10
2019-05-22T23:53:24.675Z,6.10
2019-05-22T23:55:57.235Z,6.10
2019-05-22T23:58:27.783Z,6.10
